Time;durP1;ratioP1;P1;durP2;ratioP2;P2;SDS_P1;SDS_P2;PMS_P1;PMS_P2;Temp;Humidity;BMP_temperature;BMP_pressure;BME280_temperature;BME280_humidity;BME280_pressure;Samples;Min_cycle;Max_cycle;Signal;HPM_P1;HPM_P2
2023/04/13 00:00:12;;;;;;;8.30;2.90;;;;;;;1.84;57.76;99665.00;4988216;28;20046;-72
2023/04/13 00:02:38;;;;;;;5.25;2.22;;;;;;;1.84;58.28;99662.41;4990350;28;20025;-72
2023/04/13 00:05:09;;;;;;;5.95;2.85;;;;;;;1.75;58.46;99660.03;4988719;28;20503;-72
2023/04/13 00:07:37;;;;;;;6.85;3.03;;;;;;;1.77;58.68;99658.25;4989474;28;20346;-69
2023/04/13 00:10:08;;;;;;;5.45;2.78;;;;;;;1.86;58.09;99657.22;4988668;28;20046;-70
2023/04/13 00:12:35;;;;;;;8.20;2.75;;;;;;;1.84;57.70;99653.81;4972335;28;20030;-69
2023/04/13 00:15:01;;;;;;;4.90;2.97;;;;;;;1.74;58.41;99642.88;4990006;28;20038;-69
2023/04/13 00:17:26;;;;;;;7.85;3.58;;;;;;;1.81;58.29;99649.59;4988687;28;20040;-68
2023/04/13 00:19:58;;;;;;;6.53;2.95;;;;;;;1.78;58.33;99654.81;4988465;28;22015;-68
2023/04/13 00:22:25;;;;;;;6.80;3.00;;;;;;;1.84;57.85;99646.97;4996299;28;20037;-70
2023/04/13 00:24:54;;;;;;;8.68;2.85;;;;;;;1.54;58.42;99635.63;4985810;28;20044;-70
2023/04/13 00:27:20;;;;;;;4.93;2.80;;;;;;;1.60;58.50;99637.22;4992588;28;20034;-70
2023/04/13 00:29:46;;;;;;;6.47;3.83;;;;;;;1.55;58.94;99632.19;4973511;28;20038;-70
2023/04/13 00:32:11;;;;;;;8.73;2.85;;;;;;;1.51;58.55;99628.81;4989319;28;20379;-70
2023/04/13 00:34:37;;;;;;;4.15;2.78;;;;;;;1.55;58.45;99621.00;4987436;28;20553;-70
2023/04/13 00:37:03;;;;;;;7.65;3.38;;;;;;;1.60;58.41;99620.03;4990316;28;20520;-70
2023/04/13 00:39:30;;;;;;;7.70;3.15;;;;;;;1.67;58.20;99615.59;4977491;28;20037;-70
2023/04/13 00:41:58;;;;;;;5.55;3.13;;;;;;;1.58;58.00;99608.06;4987975;28;20038;-70
2023/04/13 00:44:23;;;;;;;6.75;2.75;;;;;;;1.51;58.07;99615.94;4988185;28;20513;-70
2023/04/13 00:46:49;;;;;;;4.88;2.17;;;;;;;1.59;58.17;99608.03;4988326;28;20029;-71
2023/04/13 00:49:16;;;;;;;5.57;2.65;;;;;;;1.59;57.88;99614.91;4986992;28;20829;-70
2023/04/13 00:51:43;;;;;;;5.60;2.58;;;;;;;1.60;57.88;99604.56;4987947;28;20029;-69
2023/04/13 00:54:12;;;;;;;5.55;2.42;;;;;;;1.58;58.06;99595.19;4987620;28;20042;-72
2023/04/13 00:56:42;;;;;;;10.32;3.08;;;;;;;1.54;58.13;99589.25;4985573;28;20026;-73
2023/04/13 00:59:11;;;;;;;9.55;3.40;;;;;;;1.52;58.17;99581.56;4991138;28;20042;-72
2023/04/13 01:01:45;;;;;;;4.68;2.45;;;;;;;1.28;59.21;99572.66;4986381;28;20685;-73
2023/04/13 01:04:17;;;;;;;8.93;2.70;;;;;;;1.51;58.16;99577.31;4991697;28;20039;-73
2023/04/13 01:06:56;;;;;;;3.70;1.92;;;;;;;1.65;57.81;99571.81;4989633;28;20517;-75
2023/04/13 01:09:40;;;;;;;5.80;2.17;;;;;;;1.54;57.52;99575.53;4986357;28;20041;-70
2023/04/13 01:12:47;;;;;;;6.90;2.83;;;;;;;1.70;56.82;99579.44;4970671;28;20411;-72
2023/04/13 01:15:15;;;;;;;5.65;2.50;;;;;;;1.62;56.97;99571.91;4989698;28;20060;-72
2023/04/13 01:17:51;;;;;;;7.40;2.72;;;;;;;1.64;57.40;99574.44;4979537;28;20174;-73
2023/04/13 01:20:21;;;;;;;5.20;2.83;;;;;;;1.49;57.53;99575.66;4987310;28;20052;-73
2023/04/13 01:22:56;;;;;;;6.25;2.72;;;;;;;1.63;57.71;99570.16;4992566;28;20033;-70
2023/04/13 01:25:49;;;;;;;5.70;3.17;;;;;;;1.40;58.38;99571.56;4990039;28;20117;-74
2023/04/13 01:28:20;;;;;;;6.63;3.47;;;;;;;1.51;58.27;99561.84;4985853;28;20038;-74
2023/04/13 01:30:48;;;;;;;4.00;2.30;;;;;;;1.54;58.16;99568.66;4972727;28;20034;-73
2023/04/13 01:33:15;;;;;;;9.48;3.15;;;;;;;1.70;57.73;99558.81;4969524;28;20141;-73
2023/04/13 01:35:42;;;;;;;5.20;3.45;;;;;;;1.66;57.77;99554.63;5000760;28;20581;-73
2023/04/13 01:38:15;;;;;;;5.25;3.00;;;;;;;1.59;57.86;99550.50;4991145;28;20541;-74
2023/04/13 01:40:41;;;;;;;9.90;3.85;;;;;;;1.65;57.71;99546.06;4985801;28;20525;-72
2023/04/13 01:43:07;;;;;;;5.25;3.20;;;;;;;1.71;57.72;99547.66;4989133;28;20034;-72
2023/04/13 01:45:59;;;;;;;7.75;2.83;;;;;;;1.55;57.85;99547.19;4985304;28;20064;-70
2023/04/13 01:48:41;;;;;;;7.75;3.63;;;;;;;1.45;58.16;99541.38;5000875;28;20033;-72
2023/04/13 01:51:33;;;;;;;7.35;3.38;;;;;;;1.66;57.75;99546.91;5003692;28;20406;-70
2023/04/13 01:54:19;;;;;;;8.82;4.20;;;;;;;1.78;57.27;99541.47;4968865;28;20064;-72
2023/04/13 01:56:47;;;;;;;9.07;3.97;;;;;;;1.68;57.58;99537.41;4986442;28;20030;-73
2023/04/13 01:59:15;;;;;;;6.63;4.03;;;;;;;1.81;56.66;99531.06;4987964;28;20056;-70
2023/04/13 02:01:41;;;;;;;9.93;3.80;;;;;;;1.89;56.58;99524.00;4973658;28;20172;-72
2023/04/13 02:04:08;;;;;;;7.50;3.40;;;;;;;1.84;56.76;99525.00;4985782;28;20474;-70
2023/04/13 02:06:36;;;;;;;10.43;4.28;;;;;;;1.76;56.83;99527.78;4990437;28;20107;-76
2023/04/13 02:09:06;;;;;;;6.35;3.42;;;;;;;1.85;56.52;99532.69;4987014;28;20060;-76
2023/04/13 02:11:33;;;;;;;6.82;3.60;;;;;;;1.83;56.77;99533.63;4987682;28;20040;-76
2023/04/13 02:14:02;;;;;;;7.93;3.78;;;;;;;1.84;56.29;99520.72;4988810;28;20321;-73
2023/04/13 02:16:28;;;;;;;5.68;3.40;;;;;;;1.77;56.65;99529.44;4987102;28;20064;-74
2023/04/13 02:18:55;;;;;;;10.43;3.78;;;;;;;1.80;56.36;99523.41;4989124;28;20128;-70
2023/04/13 02:21:21;;;;;;;6.55;3.22;;;;;;;1.80;56.38;99524.25;4970115;28;20088;-70
2023/04/13 02:23:48;;;;;;;6.55;3.50;;;;;;;1.67;56.96;99528.00;5000970;28;20057;-73
2023/04/13 02:26:17;;;;;;;8.57;3.58;;;;;;;1.82;56.37;99526.75;4986926;28;20045;-73
2023/04/13 02:28:44;;;;;;;5.32;3.33;;;;;;;1.84;56.48;99520.72;4986867;28;20296;-71
2023/04/13 02:31:15;;;;;;;6.95;3.92;;;;;;;1.80;56.23;99529.41;4989306;28;20442;-73
2023/04/13 02:33:42;;;;;;;;;;;;;;;1.71;56.42;99517.59;4987048;28;20140;-70
2023/04/13 02:36:08;;;;;;;6.93;2.85;;;;;;;1.88;56.22;99511.16;4991210;28;19913;-73
2023/04/13 02:38:39;;;;;;;7.13;3.33;;;;;;;1.90;56.11;99515.38;4970842;28;20117;-72
2023/04/13 02:41:12;;;;;;;6.47;3.45;;;;;;;1.88;56.35;99512.00;4988992;28;20108;-72
2023/04/13 02:43:37;;;;;;;6.63;3.92;;;;;;;2.03;56.13;99515.06;4986519;28;20034;-71
2023/04/13 02:46:03;;;;;;;9.75;3.60;;;;;;;2.11;55.91;99515.72;4987761;28;20136;-72
2023/04/13 02:48:33;;;;;;;5.85;3.20;;;;;;;2.18;55.48;99504.34;4970558;28;20437;-71
2023/04/13 02:51:02;;;;;;;6.13;2.80;;;;;;;2.01;56.26;99507.38;4988447;28;20041;-72
2023/04/13 02:53:31;;;;;;;6.88;3.08;;;;;;;2.19;55.16;99500.88;4966336;28;20033;-69
2023/04/13 02:56:01;;;;;;;5.03;2.60;;;;;;;2.12;55.58;99500.19;4988519;28;20073;-69
2023/04/13 02:58:31;;;;;;;11.68;4.22;;;;;;;2.15;55.51;99504.41;4987327;28;20537;-71
2023/04/13 03:00:59;;;;;;;5.13;2.55;;;;;;;2.18;55.41;99501.78;4987485;28;20037;-72
2023/04/13 03:03:25;;;;;;;8.60;3.25;;;;;;;2.11;55.32;99508.84;4988770;28;20030;-73
2023/04/13 03:05:51;;;;;;;6.60;2.60;;;;;;;2.18;55.28;99504.34;4978734;28;21004;-73
2023/04/13 03:08:24;;;;;;;4.57;3.03;;;;;;;2.20;55.16;99507.75;4990422;28;20057;-73
2023/04/13 03:11:02;;;;;;;6.45;3.42;;;;;;;1.96;56.42;99498.09;4985983;28;20167;-73
2023/04/13 03:13:29;;;;;;;5.15;3.05;;;;;;;2.28;55.81;99494.63;4993612;28;20129;-70
2023/04/13 03:15:56;;;;;;;10.30;2.63;;;;;;;2.26;55.70;99497.22;4995003;28;20462;-73
2023/04/13 03:18:24;;;;;;;10.30;2.80;;;;;;;2.45;54.83;99497.59;4977361;28;20040;-74
2023/04/13 03:20:50;;;;;;;6.15;3.20;;;;;;;2.40;55.33;99494.28;4970873;28;20600;-72
2023/04/13 03:23:18;;;;;;;4.85;3.03;;;;;;;2.66;54.63;99496.09;4986693;28;20029;-72
2023/04/13 03:25:44;;;;;;;4.63;2.70;;;;;;;2.62;55.02;99494.50;4986854;28;20728;-73
2023/04/13 03:28:10;;;;;;;5.43;2.13;;;;;;;2.61;55.12;99497.97;4991782;28;20605;-73
2023/04/13 03:30:40;;;;;;;3.95;2.92;;;;;;;2.57;55.29;99496.38;4994792;28;20042;-72
2023/04/13 03:33:06;;;;;;;6.00;2.70;;;;;;;2.72;55.20;99493.34;4991881;28;20029;-72
2023/04/13 03:35:35;;;;;;;6.35;2.55;;;;;;;2.62;55.68;99499.66;4990734;28;20224;-72
2023/04/13 03:38:03;;;;;;;5.85;2.72;;;;;;;2.57;55.47;99493.78;4990738;28;20681;-71
2023/04/13 03:40:41;;;;;;;6.45;2.60;;;;;;;2.83;55.30;99487.03;4991189;28;20137;-72
2023/04/13 03:43:06;;;;;;;4.13;2.10;;;;;;;2.34;56.65;99490.13;4991232;28;20033;-71
2023/04/13 03:45:36;;;;;;;4.25;2.28;;;;;;;2.44;56.75;99490.72;4975634;28;20037;-72
2023/04/13 03:48:07;;;;;;;3.65;2.08;;;;;;;2.52;56.29;99483.63;4978967;28;20060;-72
2023/04/13 03:50:33;;;;;;;4.45;2.15;;;;;;;2.56;56.38;99481.81;4989674;28;20497;-72
2023/04/13 03:52:59;;;;;;;6.63;2.28;;;;;;;2.48;56.86;99486.31;4989862;28;20060;-71
2023/04/13 03:55:26;;;;;;;5.32;2.35;;;;;;;2.57;56.68;99478.31;4988564;28;20045;-72
2023/04/13 03:57:54;;;;;;;3.05;2.05;;;;;;;2.49;57.21;99477.72;4976198;28;20034;-72
2023/04/13 04:00:23;;;;;;;2.95;2.03;;;;;;;2.61;56.70;99482.50;4989970;28;21245;-74
2023/04/13 04:03:02;;;;;;;3.67;2.30;;;;;;;2.54;57.23;99481.00;4991584;28;20038;-73
2023/04/13 04:05:39;;;;;;;4.13;2.75;;;;;;;2.46;57.97;99470.88;4976337;28;20048;-75
2023/04/13 04:08:04;;;;;;;3.40;1.92;;;;;;;2.13;58.73;99472.69;5004899;28;20711;-74
2023/04/13 04:10:30;;;;;;;3.70;1.90;;;;;;;2.28;58.40;99474.00;4992607;28;20038;-74
2023/04/13 04:12:57;;;;;;;7.70;3.47;;;;;;;2.63;57.32;99472.16;4990652;28;20212;-74
2023/04/13 04:15:24;;;;;;;6.35;3.08;;;;;;;2.76;57.00;99470.91;4988299;28;20037;-73
2023/04/13 04:17:58;;;;;;;4.10;2.30;;;;;;;2.53;58.03;99463.81;4993565;28;20033;-72
2023/04/13 04:20:23;;;;;;;5.15;2.40;;;;;;;2.42;58.50;99468.44;4972324;28;20062;-70
2023/04/13 04:22:50;;;;;;;5.78;2.42;;;;;;;2.53;58.16;99468.97;4975033;28;20179;-70
2023/04/13 04:25:20;;;;;;;6.68;2.17;;;;;;;2.58;58.24;99461.97;4975622;28;20808;-69
2023/04/13 04:27:49;;;;;;;5.68;2.35;;;;;;;2.48;58.31;99463.13;4990858;28;20034;-70
2023/04/13 04:30:20;;;;;;;3.20;2.50;;;;;;;2.46;58.79;99473.47;4985869;28;20066;-70
2023/04/13 04:32:47;;;;;;;4.28;2.72;;;;;;;2.52;58.60;99477.63;4978952;28;20029;-67
2023/04/13 04:35:19;;;;;;;4.47;2.90;;;;;;;2.31;59.42;99469.63;4988659;28;20042;-70
2023/04/13 04:37:52;;;;;;;5.60;2.63;;;;;;;2.50;58.72;99469.06;4988649;28;20026;-69
2023/04/13 04:40:18;;;;;;;4.13;2.42;;;;;;;2.63;58.54;99472.16;4990708;28;20037;-69
2023/04/13 04:42:44;;;;;;;6.78;2.63;;;;;;;2.67;58.65;99471.19;4989167;28;20065;-72
2023/04/13 04:45:26;;;;;;;3.00;2.28;;;;;;;2.60;58.96;99469.66;4973206;28;20053;-69
2023/04/13 04:47:56;;;;;;;3.38;2.35;;;;;;;2.50;59.28;99474.22;4987198;28;20030;-70
2023/04/13 04:50:24;;;;;;;6.45;2.28;;;;;;;2.79;58.91;99469.97;4983918;28;20477;-70
2023/04/13 04:52:58;;;;;;;3.38;1.88;;;;;;;2.78;58.64;99471.69;4985716;28;20041;-70
2023/04/13 04:55:24;;;;;;;3.75;1.65;;;;;;;2.58;59.15;99472.28;4985613;28;20407;-69
2023/04/13 04:57:50;;;;;;;3.30;2.20;;;;;;;2.65;59.29;99478.94;4972249;28;20033;-71
2023/04/13 05:00:18;;;;;;;2.85;2.10;;;;;;;2.72;59.37;99483.03;4987033;28;20038;-71
2023/04/13 05:02:59;;;;;;;5.82;2.20;;;;;;;2.80;59.12;99479.38;4988574;28;20038;-72
2023/04/13 05:05:25;;;;;;;4.05;1.80;;;;;;;2.87;58.72;99480.91;4971000;28;20065;-72
2023/04/13 05:07:50;;;;;;;5.75;2.28;;;;;;;2.93;58.77;99473.78;4972360;28;20502;-72
2023/04/13 05:10:16;;;;;;;4.15;2.47;;;;;;;2.90;59.10;99493.69;4986121;28;20659;-71
2023/04/13 05:12:49;;;;;;;2.40;1.90;;;;;;;2.94;58.77;99497.88;4986558;28;20037;-70
2023/04/13 05:15:15;;;;;;;3.03;1.92;;;;;;;3.03;58.98;99489.84;4985406;28;20075;-71
2023/04/13 05:17:40;;;;;;;5.60;2.60;;;;;;;3.15;58.61;99484.28;4988101;28;20638;-72
2023/04/13 05:20:07;;;;;;;3.45;1.70;;;;;;;3.04;58.79;99495.84;5001398;28;20038;-70
2023/04/13 05:22:45;;;;;;;6.88;2.13;;;;;;;3.02;59.25;99493.31;4986985;28;20056;-69
2023/04/13 05:25:10;;;;;;;5.13;2.53;;;;;;;3.03;59.16;99489.03;4987602;28;20034;-71
2023/04/13 05:27:37;;;;;;;3.97;2.42;;;;;;;2.93;59.59;99493.59;4970071;28;20125;-71
2023/04/13 05:30:04;;;;;;;4.28;2.47;;;;;;;2.92;59.66;99503.09;4976455;28;20079;-70
2023/04/13 05:32:34;;;;;;;4.70;2.30;;;;;;;3.07;59.48;99488.88;4980368;28;20084;-70
2023/04/13 05:35:00;;;;;;;3.13;1.95;;;;;;;3.11;59.21;99497.34;4987869;28;20168;-71
2023/04/13 05:37:26;;;;;;;2.40;1.55;;;;;;;3.31;59.02;99489.84;4970600;28;20435;-71
2023/04/13 05:39:52;;;;;;;3.15;1.77;;;;;;;3.46;58.89;99496.25;4983917;28;20049;-69
2023/04/13 05:42:23;;;;;;;3.15;2.10;;;;;;;3.41;58.39;99505.91;4986726;28;20052;-68
2023/04/13 05:44:50;;;;;;;4.47;2.35;;;;;;;3.19;59.55;99501.38;4983340;28;20229;-74
2023/04/13 05:47:20;;;;;;;4.38;2.45;;;;;;;3.55;58.59;99501.13;4968015;28;20034;-69
2023/04/13 05:49:47;;;;;;;5.10;2.08;;;;;;;3.62;58.33;99509.53;4985255;28;20059;-69
2023/04/13 05:52:16;;;;;;;3.33;2.35;;;;;;;3.03;60.19;99514.81;4983280;28;20034;-72
2023/04/13 05:54:45;;;;;;;3.78;2.47;;;;;;;3.63;58.74;99515.53;4968148;28;20038;-73
2023/04/13 05:57:11;;;;;;;4.80;2.22;;;;;;;3.72;58.29;99520.41;4972552;28;20030;-74
2023/04/13 05:59:40;;;;;;;4.68;2.30;;;;;;;3.58;59.00;99513.97;4985856;28;20062;-73
2023/04/13 06:02:07;;;;;;;2.40;1.92;;;;;;;3.17;59.71;99528.97;4970229;28;20060;-73
2023/04/13 06:04:33;;;;;;;4.45;2.42;;;;;;;3.72;58.34;99520.41;4973262;28;20042;-71
2023/04/13 06:06:59;;;;;;;3.05;1.95;;;;;;;3.99;58.00;99527.22;4986013;28;20033;-74
2023/04/13 06:09:26;;;;;;;3.30;2.15;;;;;;;3.79;58.61;99527.06;4987022;28;20090;-74
2023/04/13 06:11:53;;;;;;;6.97;2.83;;;;;;;3.87;58.47;99535.38;4982319;28;20110;-71
2023/04/13 06:14:19;;;;;;;3.53;2.20;;;;;;;3.88;58.85;99531.91;4983763;28;20554;-71
2023/04/13 06:16:45;;;;;;;3.85;2.50;;;;;;;4.08;58.43;99535.59;4984277;28;20229;-72
2023/04/13 06:19:11;;;;;;;7.70;1.60;;;;;;;3.88;58.91;99534.50;4984490;28;20041;-71
2023/04/13 06:21:38;;;;;;;3.15;2.35;;;;;;;3.90;58.34;99549.97;4984979;28;20070;-72
2023/04/13 06:24:04;;;;;;;4.70;2.65;;;;;;;3.76;59.45;99546.09;4986525;28;20228;-73
2023/04/13 06:26:33;;;;;;;3.42;2.03;;;;;;;3.56;59.79;99562.25;4984612;28;20240;-73
2023/04/13 06:29:01;;;;;;;4.80;2.00;;;;;;;3.77;59.13;99562.44;4971214;28;20042;-74
2023/04/13 06:31:31;;;;;;;5.53;2.80;;;;;;;3.71;60.04;99568.66;4984401;28;20036;-69
2023/04/13 06:33:59;;;;;;;6.60;2.65;;;;;;;4.22;58.58;99562.63;4986214;28;20118;-69
2023/04/13 06:36:31;;;;;;;2.17;1.60;;;;;;;3.86;59.48;99572.47;5011861;28;20317;-71
2023/04/13 06:38:58;;;;;;;6.10;1.88;;;;;;;4.13;58.85;99583.63;5020267;28;20099;-70
2023/04/13 06:41:26;;;;;;;3.53;2.72;;;;;;;4.16;58.33;99583.56;5021128;28;20810;-73
2023/04/13 06:44:06;;;;;;;4.82;2.03;;;;;;;3.97;58.92;99598.81;5006982;28;20033;-71
2023/04/13 06:46:35;;;;;;;3.38;1.83;;;;;;;3.76;60.47;99594.34;5018460;28;20519;-69
2023/04/13 06:49:08;;;;;;;4.47;2.33;;;;;;;3.47;60.64;99598.72;5018631;28;20033;-69
2023/04/13 06:51:36;;;;;;;3.03;1.73;;;;;;;3.59;60.11;99576.81;5016145;28;20155;-69
2023/04/13 06:54:01;;;;;;;3.67;2.42;;;;;;;4.32;58.34;99603.69;5008758;28;20070;-72
2023/04/13 06:56:27;;;;;;;8.15;2.17;;;;;;;3.67;59.47;99600.69;5005445;28;20024;-69
2023/04/13 06:58:57;;;;;;;5.95;2.17;;;;;;;4.15;58.55;99602.53;5025225;28;20079;-69
2023/04/13 07:01:23;;;;;;;3.33;1.92;;;;;;;6.56;52.57;99595.06;5022490;28;20037;-69
2023/04/13 07:03:49;;;;;;;7.53;1.98;;;;;;;8.13;46.88;99599.00;5025233;28;20453;-70
2023/04/13 07:06:15;;;;;;;1.45;1.17;;;;;;;9.34;45.05;99609.22;5010440;28;20037;-70
2023/04/13 07:08:41;;;;;;;4.95;1.20;;;;;;;10.56;42.41;99600.50;5026171;28;20044;-70
2023/04/13 07:11:07;;;;;;;3.47;1.10;;;;;;;12.20;38.38;99599.75;5025376;28;20566;-70
2023/04/13 07:13:36;;;;;;;1.95;0.75;;;;;;;12.95;36.56;99602.50;5025081;28;20149;-67
2023/04/13 07:16:04;;;;;;;1.67;0.70;;;;;;;12.00;38.03;99601.06;5025681;28;20109;-70
2023/04/13 07:18:34;;;;;;;1.40;0.80;;;;;;;11.69;37.49;99616.16;5023631;28;20604;-71
2023/04/13 07:21:00;;;;;;;3.75;1.02;;;;;;;12.00;37.41;99622.03;5024504;28;20052;-71
2023/04/13 07:23:32;;;;;;;2.93;0.80;;;;;;;11.39;39.14;99622.41;5035832;28;20032;-70
2023/04/13 07:26:00;;;;;;;1.70;0.85;;;;;;;11.13;39.98;99621.44;5012596;28;20444;-70
2023/04/13 07:28:28;;;;;;;1.42;1.08;;;;;;;8.88;43.31;99628.19;5006543;28;20543;-71
2023/04/13 07:30:55;;;;;;;1.80;0.80;;;;;;;8.89;44.46;99624.63;5021578;28;20540;-70
2023/04/13 07:33:22;;;;;;;1.90;0.98;;;;;;;7.13;46.92;99623.69;5019262;28;20037;-70
2023/04/13 07:35:53;;;;;;;4.75;1.30;;;;;;;7.94;45.85;99645.06;5009504;28;20057;-70
2023/04/13 07:38:20;;;;;;;2.38;1.33;;;;;;;5.13;52.72;99646.59;5026127;28;20044;-71
2023/04/13 07:40:49;;;;;;;2.63;1.15;;;;;;;5.46;52.20;99654.88;5023514;28;20044;-70
2023/04/13 07:43:16;;;;;;;1.35;0.88;;;;;;;5.82;52.68;99664.72;5025529;28;20838;-70
2023/04/13 07:45:43;;;;;;;4.88;1.20;;;;;;;5.69;51.97;99663.50;5001948;28;20033;-70
2023/04/13 07:48:09;;;;;;;6.85;1.25;;;;;;;7.38;50.77;99661.53;5024325;28;20409;-70
2023/04/13 07:50:41;;;;;;;4.70;1.13;;;;;;;6.31;50.48;99667.06;5018800;28;20037;-70
2023/04/13 07:53:10;;;;;;;2.85;1.02;;;;;;;5.83;51.92;99671.56;5024052;28;20086;-70
2023/04/13 07:55:36;;;;;;;2.33;0.63;;;;;;;6.76;50.24;99685.06;5005758;28;20029;-72
2023/04/13 07:58:03;;;;;;;2.58;1.08;;;;;;;6.41;50.61;99669.22;5028298;28;20060;-72
2023/04/13 08:00:29;;;;;;;5.20;1.30;;;;;;;6.06;50.72;99689.66;5020484;28;20379;-72
2023/04/13 08:02:57;;;;;;;2.30;0.65;;;;;;;5.63;51.78;99686.16;5028863;28;20033;-71
2023/04/13 08:05:26;;;;;;;1.63;0.70;;;;;;;5.19;53.40;99693.84;5017267;28;20037;-74
2023/04/13 08:07:52;;;;;;;1.95;1.30;;;;;;;5.71;51.96;99695.41;5012864;28;20258;-75
2023/04/13 08:10:17;;;;;;;3.47;0.82;;;;;;;6.60;50.67;99697.03;5013396;28;20548;-75
2023/04/13 08:12:43;;;;;;;5.95;1.08;;;;;;;6.26;51.13;99695.78;5017890;28;20459;-74
2023/04/13 08:15:11;;;;;;;5.55;1.00;;;;;;;7.10;48.19;99694.00;5046978;28;20048;-75
2023/04/13 08:17:37;;;;;;;2.55;0.60;;;;;;;6.64;49.91;99701.16;5027707;28;20036;-75
2023/04/13 08:20:06;;;;;;;1.95;0.93;;;;;;;6.37;51.27;99700.56;5028823;28;20394;-74
2023/04/13 08:22:32;;;;;;;2.15;0.82;;;;;;;6.48;50.11;99707.03;5027798;28;20072;-74
2023/04/13 08:24:57;;;;;;;2.92;1.17;;;;;;;6.78;49.31;99701.44;5026029;28;20127;-74
2023/04/13 08:27:24;;;;;;;1.75;0.82;;;;;;;7.18;48.50;99693.66;5026120;28;20052;-74
2023/04/13 08:29:54;;;;;;;6.78;2.05;;;;;;;6.29;50.08;99706.09;5008281;28;20345;-75
2023/04/13 08:32:20;;;;;;;4.20;0.67;;;;;;;6.75;49.00;99708.50;5040498;28;20146;-75
2023/04/13 08:34:46;;;;;;;1.67;0.70;;;;;;;6.00;49.76;99713.25;5025334;28;20342;-74
2023/04/13 08:37:15;;;;;;;2.72;0.95;;;;;;;6.28;50.66;99726.00;5025984;28;20029;-75
2023/04/13 08:39:42;;;;;;;4.20;1.02;;;;;;;5.75;52.00;99717.69;5009690;28;20548;-74
2023/04/13 08:42:08;;;;;;;1.92;1.00;;;;;;;5.72;50.72;99728.19;5011785;28;20044;-75
2023/04/13 08:44:39;;;;;;;2.22;1.33;;;;;;;5.52;52.36;99739.31;5024905;28;20041;-74
2023/04/13 08:47:09;;;;;;;5.57;1.13;;;;;;;5.90;51.99;99739.59;5006660;28;20029;-75
2023/04/13 08:49:37;;;;;;;2.65;1.45;;;;;;;6.08;52.85;99750.13;5020126;28;21833;-73
2023/04/13 08:52:18;;;;;;;4.50;1.50;;;;;;;7.52;49.15;99751.00;5025376;28;20064;-76
2023/04/13 08:54:49;;;;;;;4.45;1.73;;;;;;;9.36;45.10;99738.59;5019205;28;20033;-77
2023/04/13 08:57:22;;;;;;;7.07;1.52;;;;;;;8.87;43.28;99741.13;4990122;28;20037;-75
2023/04/13 08:59:51;;;;;;;3.70;1.10;;;;;;;7.51;45.43;99741.53;5005018;28;20226;-75
2023/04/13 09:02:27;;;;;;;2.65;0.90;;;;;;;7.46;45.70;99748.66;5007306;28;20047;-75
2023/04/13 09:05:00;;;;;;;5.15;0.80;;;;;;;6.75;47.44;99756.09;5007902;28;20429;-75
2023/04/13 09:07:31;;;;;;;3.88;0.82;;;;;;;7.15;47.46;99754.38;5005446;28;20056;-75
2023/04/13 09:10:04;;;;;;;5.00;0.82;;;;;;;7.08;46.99;99753.81;5005110;28;20081;-75
2023/04/13 09:12:31;;;;;;;9.13;1.10;;;;;;;6.85;47.08;99757.41;4996230;28;20052;-75
2023/04/13 09:14:57;;;;;;;5.20;0.90;;;;;;;6.67;47.39;99758.19;5001441;28;20033;-75
2023/04/13 09:17:26;;;;;;;3.85;0.82;;;;;;;7.11;45.09;99758.88;5000181;28;20415;-75
2023/04/13 09:20:09;;;;;;;7.95;0.80;;;;;;;7.08;45.11;99761.59;5009241;28;20045;-74
2023/04/13 09:22:36;;;;;;;3.10;0.52;;;;;;;7.25;45.21;99766.09;5018318;28;20037;-75
2023/04/13 09:25:04;;;;;;;3.75;0.60;;;;;;;7.53;44.76;99762.25;5026034;28;20043;-74
2023/04/13 09:27:29;;;;;;;5.75;1.00;;;;;;;9.08;42.66;99764.44;5024189;28;20116;-75
2023/04/13 09:29:55;;;;;;;5.15;0.63;;;;;;;8.91;43.78;99766.13;5024516;28;20535;-76
2023/04/13 09:32:26;;;;;;;2.60;0.60;;;;;;;9.00;41.91;99769.19;5023785;28;20044;-75
2023/04/13 09:35:03;;;;;;;4.45;0.55;;;;;;;8.30;42.15;99776.94;5012145;28;20033;-76
2023/04/13 09:37:35;;;;;;;1.83;0.43;;;;;;;9.35;43.53;99778.63;4997162;28;20037;-76
2023/04/13 09:40:14;;;;;;;2.30;1.00;;;;;;;8.45;41.58;99771.00;5004767;28;20037;-75
2023/04/13 09:42:58;;;;;;;2.53;0.30;;;;;;;8.42;41.25;99788.53;5003869;28;20590;-76
2023/04/13 09:45:31;;;;;;;3.20;0.82;;;;;;;9.38;39.85;99764.59;4996677;28;20482;-77
2023/04/13 09:48:01;;;;;;;3.47;0.60;;;;;;;10.10;39.98;99778.16;5002640;28;20037;-77
2023/04/13 09:50:27;;;;;;;5.90;2.20;;;;;;;9.06;41.11;99780.16;4989343;28;20586;-75
2023/04/13 09:52:59;;;;;;;3.28;0.22;;;;;;;8.17;41.89;99786.25;5004550;28;20045;-75
2023/04/13 09:55:26;;;;;;;2.20;0.63;;;;;;;7.98;41.85;99789.72;4987483;28;20905;-75
2023/04/13 09:57:51;;;;;;;2.53;0.50;;;;;;;7.83;42.17;99793.03;4989288;28;20025;-76
2023/04/13 10:00:20;;;;;;;2.10;0.50;;;;;;;7.74;43.59;99804.69;5005615;28;20175;-75
2023/04/13 10:02:51;;;;;;;2.30;0.20;;;;;;;7.14;44.48;99812.47;5006233;28;20029;-75
2023/04/13 10:05:18;;;;;;;2.22;0.22;;;;;;;7.37;45.96;99811.47;4985929;28;20055;-76
2023/04/13 10:07:45;;;;;;;1.55;0.43;;;;;;;8.26;43.12;99806.63;5002238;28;20029;-76
2023/04/13 10:10:11;;;;;;;3.70;0.50;;;;;;;8.93;43.48;99811.19;5007922;28;20575;-77
2023/04/13 10:12:46;;;;;;;2.75;0.63;;;;;;;9.38;42.37;99814.13;5006964;28;20722;-76
2023/04/13 10:15:39;;;;;;;2.83;0.40;;;;;;;9.05;42.53;99829.75;5003375;28;20121;-76
2023/04/13 10:18:13;;;;;;;2.63;0.95;;;;;;;9.60;41.40;99824.31;5003591;28;20041;-76
2023/04/13 10:20:40;;;;;;;1.58;0.57;;;;;;;7.66;45.15;99815.41;5016063;28;20048;-75
2023/04/13 10:23:06;;;;;;;1.45;0.47;;;;;;;8.80;43.00;99823.13;5025701;28;20224;-76
2023/04/13 10:25:32;;;;;;;2.65;0.55;;;;;;;9.27;42.53;99838.16;5022987;28;20311;-75
2023/04/13 10:27:59;;;;;;;6.22;0.93;;;;;;;10.01;41.45;99836.94;5022266;28;20033;-77
2023/04/13 10:30:25;;;;;;;4.68;0.55;;;;;;;9.66;41.00;99839.63;5015376;28;20045;-75
2023/04/13 10:33:05;;;;;;;1.10;0.45;;;;;;;9.17;41.95;99844.78;5021949;28;20029;-76
2023/04/13 10:35:35;;;;;;;4.07;0.50;;;;;;;8.40;45.46;99853.69;5039744;28;20273;-77
2023/04/13 10:38:01;;;;;;;1.45;0.30;;;;;;;7.49;48.37;99867.31;5023977;28;20120;-75
2023/04/13 10:40:27;;;;;;;1.50;0.30;;;;;;;6.72;49.34;99875.69;5013270;28;20098;-76
2023/04/13 10:42:52;;;;;;;0.60;0.30;;;;;;;6.35;51.37;99889.25;5015502;28;20045;-76
2023/04/13 10:45:20;;;;;;;1.60;0.30;;;;;;;5.94;52.06;99887.25;5020837;28;20154;-74
2023/04/13 10:47:47;;;;;;;2.35;0.30;;;;;;;6.49;53.24;99895.59;5020756;28;20118;-75
2023/04/13 10:50:21;;;;;;;1.30;0.52;;;;;;;6.93;52.75;99886.94;5019704;28;20778;-75
2023/04/13 10:53:06;;;;;;;4.88;0.90;;;;;;;7.51;52.12;99883.66;5019152;28;20051;-76
2023/04/13 10:55:33;;;;;;;4.93;0.80;;;;;;;7.92;49.60;99892.31;5012644;28;20113;-75
2023/04/13 10:58:00;;;;;;;1.10;0.70;;;;;;;8.11;49.35;99899.28;5022178;28;20075;-74
2023/04/13 11:00:29;;;;;;;1.23;0.50;;;;;;;8.59;48.71;99902.31;5021982;28;20048;-75
2023/04/13 11:02:56;;;;;;;2.55;0.30;;;;;;;7.47;49.32;99902.94;5023018;28;20030;-76
2023/04/13 11:05:23;;;;;;;0.75;0.32;;;;;;;7.97;49.11;99904.28;5035853;28;20037;-77
2023/04/13 11:07:50;;;;;;;1.35;0.30;;;;;;;7.57;49.62;99912.06;5023206;28;20039;-75
2023/04/13 11:10:27;;;;;;;0.30;0.10;;;;;;;7.27;48.85;99902.00;5023472;28;20032;-76
2023/04/13 11:12:55;;;;;;;2.55;0.40;;;;;;;6.37;50.67;99908.19;5020553;28;20041;-75
2023/04/13 11:15:22;;;;;;;1.40;0.30;;;;;;;6.91;49.95;99923.41;5022574;28;20456;-76
2023/04/13 11:17:57;;;;;;;1.00;0.30;;;;;;;6.66;49.98;99927.84;5005043;28;20071;-75
2023/04/13 11:20:39;;;;;;;2.15;0.55;;;;;;;6.75;50.80;99940.47;5021830;28;20436;-75
2023/04/13 11:23:17;;;;;;;0.45;0.10;;;;;;;5.83;53.04;99930.88;5004179;28;20043;-75
2023/04/13 11:25:56;;;;;;;3.08;0.10;;;;;;;6.46;51.58;99936.41;5020418;28;20135;-72
2023/04/13 11:28:24;;;;;;;2.28;0.45;;;;;;;5.63;54.20;99944.53;5005138;28;20054;-72
2023/04/13 11:30:56;;;;;;;3.63;0.50;;;;;;;6.18;54.05;99945.19;5033924;28;20510;-73
2023/04/13 11:33:29;;;;;;;1.02;0.47;;;;;;;6.12;54.15;99941.97;5020538;28;20037;-72
2023/04/13 11:36:00;;;;;;;0.98;0.20;;;;;;;6.23;53.21;99970.97;5000345;28;20093;-72
2023/04/13 11:38:27;;;;;;;1.15;0.57;;;;;;;6.26;54.57;99983.81;4998360;28;20033;-74
2023/04/13 11:40:58;;;;;;;4.05;0.35;;;;;;;6.43;54.98;99978.91;4997894;28;20045;-74
2023/04/13 11:43:24;;;;;;;;;;;;;;;7.13;52.40;99974.47;5002107;28;20244;-74
2023/04/13 11:45:49;;;;;;;0.47;0.10;;;;;;;8.29;52.14;99973.09;4985561;28;19974;-73
2023/04/13 11:48:16;;;;;;;0.73;0.10;;;;;;;8.52;48.13;99972.91;4999332;28;20040;-74
2023/04/13 11:50:43;;;;;;;2.33;0.08;;;;;;;7.72;50.30;99973.81;5000804;28;20052;-73